• Join FlightAware (Why Join?)
  • Login
  • US Flag 
08:39AM EDT


 

Airport Tracker/Info


-or-


 

Live Flight TrackerFlight Track Log ✈ UAL4457 ✈ 12-Apr-2013 ✈ KIAH - KLEX

Flight Track Log - Related Links

Times and Time Zones

All times are in EDT time to prevent confusion due to time zone crossing. See the UAL4457 flight status page for this flight to view local times or setup timezone preferences in your user account.

Time Position Orientation Groundspeed Altitude Reporting Facility
EDT Latitude Longitude Course Direction KTS MPH feet Rate Location/Type
03:41PM 29.9767 -95.3008 32° Northeast 160 184 500  Level Houston Center
03:42PM 30.0161 -95.2719 32° Northeast 215 247 2,300 1,740 Climbing Houston Center
03:42PM 30.0578 -95.2597 14° North 236 272 3,500 960 Climbing Houston Center
03:43PM 30.1250 -95.2342 18° North 250 288 4,000 1,200 Climbing Houston Center
03:44PM 30.3979 -95.0017 35° Northeast  Level FlightAware Approximate
03:44PM 30.1847 -95.1853 35° Northeast 259 298 6,000  Level Houston Center
03:45PM 30.5006 -94.9229 35° Northeast  Level FlightAware Approximate
03:45PM 30.2467 -95.1358 35° Northeast 268 308 8,900  Level Houston Center
03:46PM 30.6045 -94.8397 32° Northeast  Level FlightAware Approximate
03:47PM 30.3286 -95.0733 33° Northeast 295 339 10,700  Level Houston Center
03:48PM 30.4089 -95.0072 35° Northeast 350 403 11,900 1,260 Climbing Houston Center
03:49PM 30.4881 -94.9433 35° Northeast 371 427 13,400 1,500 Climbing Houston Center
03:50PM 30.5964 -94.8594 34° Northeast 389 448 15,100 1,440 Climbing Houston Center
03:51PM 30.6900 -94.7867 34° Northeast 403 464 16,400 1,200 Climbing Houston Center
03:52PM 30.7850 -94.7133 34° Northeast 411 473 17,700 1,200 Climbing Houston Center
03:53PM 30.8822 -94.6389 33° Northeast 420 483 18,900 1,260 Climbing Houston Center
03:53PM 30.9192 -94.6094 34° Northeast 397 457 19,400 1,440 Climbing Fort Worth Center
03:54PM 31.0197 -94.5339 33° Northeast 437 503 20,800 1,200 Climbing Fort Worth Center
03:55PM 31.1203 -94.4531 35° Northeast 437 503 21,900 1,320 Climbing Fort Worth Center
03:56PM 31.2206 -94.3747 34° Northeast 439 505 23,500 1,620 Climbing Fort Worth Center
03:57PM 31.3231 -94.2958 33° Northeast 439 505 25,200 1,680 Climbing Fort Worth Center
03:58PM 31.4214 -94.2172 34° Northeast 433 498 26,900 1,500 Climbing Fort Worth Center
03:59PM 31.5022 -94.1119 48° Northeast 426 490 28,300 1,380 Climbing Fort Worth Center
04:00PM 31.5764 -94.0044 51° Northeast 416 479 29,700 1,200 Climbing Fort Worth Center
04:01PM 31.6367 -93.9169 51° Northeast 423 487 30,800 1,200 Climbing Fort Worth Center
04:02PM 31.7189 -93.7967 51° Northeast 423 487 32,200 1,200 Climbing Fort Worth Center
04:03PM 31.7908 -93.6886 52° Northeast 423 487 33,300 1,020 Climbing Fort Worth Center
04:04PM 31.8669 -93.5756 52° Northeast 428 493 34,300 780 Climbing Fort Worth Center
04:05PM 31.9447 -93.4619 51° Northeast 433 498 34,900 300 Climbing Fort Worth Center
04:06PM 32.0267 -93.3433 51° Northeast 446 513 35,000  Climbing Fort Worth Center
04:07PM 32.1103 -93.2194 51° Northeast 457 526 35,000  Level Fort Worth Center
04:08PM 32.1956 -93.0903 52° Northeast 486 559 35,000  Level Fort Worth Center
04:09PM 32.2869 -92.9583 51° Northeast 498 573 35,000  Level Fort Worth Center
04:10PM 32.3758 -92.8211 52° Northeast 513 590 35,000  Level Fort Worth Center
04:11PM 32.4689 -92.6786 52° Northeast 529 609 35,000  Level Fort Worth Center
04:12PM 32.5597 -92.5431 51° Northeast 524 603 35,000  Level Fort Worth Center
04:13PM 32.6486 -92.4150 50° Northeast 517 595 35,000  Level Fort Worth Center
04:15PM 32.8625 -92.0811 53° Northeast 526 605 35,000  Level Memphis Center
04:16PM 32.9586 -91.9294 53° Northeast 526 605 35,000  Level Memphis Center
04:17PM 33.0478 -91.7922 52° Northeast 526 605 35,000  Level Memphis Center
04:18PM 33.1369 -91.6547 52° Northeast 521 600 35,000  Level Memphis Center
04:19PM 33.2281 -91.5169 52° Northeast 528 608 35,000  Level Memphis Center
04:20PM 33.3169 -91.3764 53° Northeast 523 602 35,000  Level Memphis Center
04:21PM 33.4058 -91.2356 53° Northeast 523 602 35,000  Level Memphis Center
04:22PM 33.4964 -91.0944 52° Northeast 523 602 35,000  Level Memphis Center
04:23PM 33.5847 -90.9556 53° Northeast 523 602 35,000  Level Memphis Center
04:24PM 33.6772 -90.8142 52° Northeast 528 608 35,000  Level Memphis Center
04:25PM 33.7653 -90.6719 53° Northeast 528 608 35,000  Level Memphis Center
04:26PM 33.8553 -90.5297 53° Northeast 528 608 35,000  Level Memphis Center
04:27PM 33.9431 -90.3872 53° Northeast 528 608 35,000  Level Memphis Center
04:28PM 34.0328 -90.2419 53° Northeast 528 608 35,000  Level Memphis Center
04:29PM 34.1222 -90.0986 53° Northeast 528 608 35,000  Level Memphis Center
04:30PM 34.2139 -89.9528 53° Northeast 528 608 35,000  Level Memphis Center
04:31PM 34.3008 -89.8064 54° Northeast 534 615 35,000  Level Memphis Center
04:32PM 34.3897 -89.6600 54° Northeast 534 615 35,000  Level Memphis Center
04:33PM 34.4808 -89.5106 53° Northeast 539 620 35,000  Level Memphis Center
04:34PM 34.5714 -89.3608 54° Northeast 544 626 35,000  Level Memphis Center
04:35PM 34.6619 -89.2133 53° Northeast 551 634 35,000  Level Memphis Center
04:36PM 34.7503 -89.0656 54° Northeast 551 634 35,000  Level Memphis Center
04:37PM 34.8403 -88.9147 54° Northeast 551 634 35,000  Level Memphis Center
04:38PM 34.9325 -88.7639 53° Northeast 551 634 35,000  Level Memphis Center
04:39PM 35.0200 -88.6175 54° Northeast 544 626 35,000  Level Memphis Center
04:40PM 35.0994 -88.4814 54° Northeast 544 626 35,000  Level Memphis Center
04:41PM 35.1889 -88.3372 53° Northeast 538 619 35,000  Level Memphis Center
04:42PM 35.2783 -88.1875 54° Northeast 538 619 35,000  Level Memphis Center
04:43PM 35.3694 -88.0322 54° Northeast 544 626 35,000  Level Memphis Center
04:44PM 35.4661 -87.8639 55° Northeast 551 634 35,000  Level Memphis Center
04:45PM 35.5425 -87.7239 56° Northeast 551 634 35,000  Level Memphis Center
04:46PM 35.6331 -87.5703 54° Northeast 556 640 35,000  Level Memphis Center
04:47PM 35.7211 -87.4139 55° Northeast 550 633 35,000  Level Memphis Center
04:48PM 35.8114 -87.2597 54° Northeast 550 633 35,000  Level Memphis Center
04:49PM 35.8992 -87.1050 55° Northeast 550 633 35,000  Level Memphis Center
04:50PM 35.9867 -86.9478 55° Northeast 555 639 35,000  Level Memphis Center
04:51PM 36.0758 -86.7900 55° Northeast 555 639 35,000 -240 Level Memphis Center
04:52PM 36.1694 -86.6367 53° Northeast 555 639 34,600 -540 Descending Memphis Center
04:53PM 36.2714 -86.4956 48° Northeast 550 633 34,000 -540 Descending Memphis Center
04:54PM 36.3931 -86.3842 36° Northeast 542 624 33,600 -900 Descending Memphis Center
04:55PM 36.5097 -86.2597 41° Northeast 542 624 32,300 -1,320 Descending Memphis Center
04:57PM 36.7078 -85.9542 51° Northeast 567 652 29,700 -1,380 Descending Indianapolis Center
04:58PM 36.8056 -85.8000 52° Northeast 564 649 28,300 -1,680 Descending Indianapolis Center
04:59PM 36.9033 -85.6439 52° Northeast 565 650 26,300 -1,800 Descending Indianapolis Center
05:01PM 36.9942 -85.5011 51° Northeast 533 613 24,600 -1,380 Descending Indianapolis Center
05:02PM 37.0975 -85.3356 52° Northeast 530 610 23,500 -1,980 Descending Indianapolis Center
05:03PM 37.1878 -85.1919 52° Northeast 522 601 20,600 -2,880 Descending Indianapolis Center
05:04PM 37.2711 -85.0569 52° Northeast 493 567 17,600 -2,940 Descending Indianapolis Center
05:05PM 37.3492 -84.9308 52° Northeast 463 533 14,600 -2,880 Descending Indianapolis Center
05:06PM 37.4369 -84.7928 51° Northeast 429 494 11,700 -1,800 Descending Indianapolis Center
05:07PM 37.5308 -84.7289 28° Northeast 396 456 11,000 -780 Descending Indianapolis Center
05:08PM 37.6192 -84.6761 25° Northeast 360 414 10,200 -1,020 Descending Indianapolis Center
05:09PM 37.6950 -84.6325 24° Northeast 312 359 9,000 -600 Descending Indianapolis Center
05:10PM 37.7653 -84.5908 25° Northeast 286 329 9,000 -180 Level Indianapolis Center
05:11PM 37.8311 -84.5531 24° Northeast 264 304 8,700 -780 Descending Indianapolis Center
05:12PM 37.9086 -84.5108 23° Northeast 261 300 7,400 -1,260 Descending Indianapolis Center
05:13PM 37.9817 -84.4933 11° North 264 304 6,200 -1,020 Descending Indianapolis Center
05:14PM 38.0486 -84.4744 13° North 259 298 5,400 -780 Descending Indianapolis Center